createdAt,value
2023-04-05T00:01:56.223Z,12.50
2023-04-05T00:04:24.949Z,15.15
2023-04-05T00:06:54.397Z,11.65
2023-04-05T00:09:23.000Z,16.08
2023-04-05T00:11:51.557Z,20.63
2023-04-05T00:14:20.366Z,19.10
2023-04-05T00:16:49.140Z,16.33
2023-04-05T00:19:17.892Z,18.48
2023-04-05T00:21:46.958Z,16.23
2023-04-05T00:24:15.989Z,22.23
2023-04-05T00:26:44.328Z,22.23
2023-04-05T00:29:13.076Z,20.65
2023-04-05T00:31:41.664Z,15.88
2023-04-05T00:34:12.423Z,15.73
2023-04-05T00:36:40.648Z,15.15
2023-04-05T00:39:09.608Z,15.20
2023-04-05T00:41:48.597Z,18.10
2023-04-05T00:44:17.729Z,15.20
2023-04-05T00:46:46.118Z,19.63
2023-04-05T00:49:15.584Z,12.90
2023-04-05T00:51:44.856Z,12.85
2023-04-05T00:54:15.323Z,12.10
2023-04-05T00:56:44.254Z,10.10
2023-04-05T00:59:13.176Z,12.45
2023-04-05T01:01:42.250Z,16.00
2023-04-05T01:04:11.947Z,11.07
2023-04-05T01:06:58.218Z,12.05
2023-04-05T01:09:41.356Z,13.65
2023-04-05T01:12:12.770Z,12.07
2023-04-05T01:14:52.533Z,10.73
2023-04-05T01:17:23.182Z,13.60
2023-04-05T01:19:59.283Z,12.98
2023-04-05T01:22:52.491Z,16.67
2023-04-05T01:25:41.604Z,13.63
2023-04-05T01:28:32.942Z,23.85
2023-04-05T01:31:42.481Z,25.58
2023-04-05T01:34:26.145Z,29.80
2023-04-05T01:36:58.244Z,31.60
2023-04-05T01:39:30.161Z,35.70
2023-04-05T01:42:01.408Z,37.22
2023-04-05T01:44:30.259Z,38.30
2023-04-05T01:46:59.228Z,43.75
2023-04-05T01:49:27.672Z,44.83
2023-04-05T01:51:56.457Z,43.65
2023-04-05T01:54:24.859Z,36.45
2023-04-05T01:56:53.766Z,36.72
2023-04-05T01:59:22.059Z,37.92
2023-04-05T02:01:51.892Z,26.80
2023-04-05T02:04:20.157Z,26.00
2023-04-05T02:06:48.814Z,24.58
2023-04-05T02:09:17.551Z,22.65
2023-04-05T02:11:47.324Z,25.02
2023-04-05T02:14:15.753Z,21.15
2023-04-05T02:16:45.179Z,16.58
2023-04-05T02:19:16.167Z,14.88
2023-04-05T02:21:46.328Z,17.63
2023-04-05T02:24:14.646Z,18.50
2023-04-05T02:26:43.575Z,13.43
2023-04-05T02:29:12.027Z,15.82
2023-04-05T02:31:41.091Z,16.02
2023-04-05T02:34:11.859Z,15.90
2023-04-05T02:36:42.158Z,15.57
2023-04-05T02:39:10.474Z,15.73
2023-04-05T02:41:40.116Z,17.42
2023-04-05T02:44:11.890Z,18.17
2023-04-05T02:46:40.810Z,29.38
2023-04-05T02:49:09.234Z,41.20
2023-04-05T02:51:39.343Z,25.85
2023-04-05T02:54:10.976Z,24.00
2023-04-05T02:56:42.450Z,83.88
2023-04-05T02:59:16.001Z,99.00
2023-04-05T03:01:46.424Z,143.05
2023-04-05T03:04:26.981Z,158.50
2023-04-05T03:07:04.898Z,129.05
2023-04-05T03:09:38.779Z,121.13
2023-04-05T03:12:10.683Z,127.63
2023-04-05T03:14:42.682Z,78.20
2023-04-05T03:17:15.791Z,81.00
2023-04-05T03:19:48.930Z,61.58
2023-04-05T03:22:22.380Z,43.55
2023-04-05T03:24:51.034Z,31.83
2023-04-05T03:27:22.083Z,28.85
2023-04-05T03:30:22.767Z,20.73
2023-04-05T03:33:04.576Z,21.30
2023-04-05T03:35:45.947Z,20.23
2023-04-05T03:38:16.576Z,19.38
2023-04-05T03:40:54.871Z,16.17
2023-04-05T03:43:23.583Z,17.95
2023-04-05T03:45:51.964Z,17.08
2023-04-05T03:48:21.866Z,19.50
2023-04-05T03:50:51.483Z,20.27
2023-04-05T03:53:22.346Z,20.45
2023-04-05T03:55:55.907Z,29.90
2023-04-05T03:58:52.163Z,34.63
2023-04-05T04:01:25.994Z,36.17
2023-04-05T04:03:56.082Z,41.13
2023-04-05T04:06:27.158Z,37.88
2023-04-05T04:08:57.219Z,49.17
2023-04-05T04:11:26.371Z,47.83
2023-04-05T04:13:55.768Z,73.10
2023-04-05T04:16:36.790Z,63.15
2023-04-05T04:19:22.256Z,53.05
2023-04-05T04:22:22.829Z,44.25
2023-04-05T04:25:12.913Z,39.88
2023-04-05T04:28:19.555Z,40.28
2023-04-05T04:31:13.708Z,39.50
2023-04-05T04:34:08.150Z,56.92
2023-04-05T04:37:00.978Z,187.35
2023-04-05T04:39:37.814Z,259.48
2023-04-05T04:42:38.979Z,303.50
2023-04-05T04:45:19.528Z,192.25
2023-04-05T04:47:53.939Z,174.50
2023-04-05T04:50:40.931Z,181.90
2023-04-05T04:53:09.697Z,139.45
2023-04-05T04:55:39.268Z,94.93
2023-04-05T04:58:12.581Z,95.60
2023-04-05T05:00:44.496Z,112.28
2023-04-05T05:03:14.486Z,94.85
2023-04-05T05:05:50.654Z,142.70
2023-04-05T05:08:23.966Z,148.27
2023-04-05T05:10:55.121Z,157.98
2023-04-05T05:13:23.844Z,157.93
2023-04-05T05:15:53.088Z,158.18
2023-04-05T05:18:21.703Z,149.90
2023-04-05T05:20:53.397Z,119.22
2023-04-05T05:25:50.029Z,80.45
2023-04-05T05:28:29.294Z,54.78
2023-04-05T05:30:57.854Z,55.08
2023-04-05T05:33:26.629Z,41.80
2023-04-05T05:35:54.871Z,25.08
2023-04-05T05:38:23.734Z,23.17
2023-04-05T05:40:58.663Z,31.23
2023-04-05T05:43:27.254Z,32.17
2023-04-05T05:45:55.767Z,32.97
2023-04-05T05:48:24.654Z,37.60
2023-04-05T05:51:19.002Z,35.58
2023-04-05T05:53:48.156Z,34.33
2023-04-05T05:56:16.603Z,34.50
2023-04-05T05:58:46.101Z,33.63
2023-04-05T06:01:14.525Z,32.03
2023-04-05T06:03:43.359Z,31.77
2023-04-05T06:06:11.753Z,34.83
2023-04-05T06:08:40.984Z,30.35
2023-04-05T06:11:17.667Z,33.45
2023-04-05T06:13:46.419Z,27.88
2023-04-05T06:16:15.724Z,22.15
2023-04-05T06:18:45.042Z,21.60
2023-04-05T06:21:14.067Z,20.15
2023-04-05T06:23:42.662Z,19.75
2023-04-05T06:26:20.795Z,14.00
2023-04-05T06:28:50.573Z,15.07
2023-04-05T06:31:21.518Z,11.88
2023-04-05T06:33:50.025Z,13.65
2023-04-05T06:36:18.552Z,8.18
2023-04-05T06:38:47.356Z,7.28
2023-04-05T06:41:15.592Z,7.95
2023-04-05T06:43:44.133Z,9.52
2023-04-05T06:46:13.853Z,7.68
2023-04-05T06:48:44.622Z,7.60
2023-04-05T06:51:12.839Z,6.05
2023-04-05T06:53:41.724Z,6.50
2023-04-05T06:56:10.084Z,6.95
2023-04-05T06:58:39.005Z,8.48
2023-04-05T07:01:07.920Z,5.80
2023-04-05T07:03:36.619Z,10.20
2023-04-05T07:06:05.107Z,7.85
2023-04-05T07:08:33.641Z,10.05
2023-04-05T07:11:02.037Z,7.38
2023-04-05T07:13:32.777Z,7.53
2023-04-05T07:16:02.523Z,7.55
2023-04-05T07:18:31.484Z,7.63
2023-04-05T07:21:04.185Z,7.13
2023-04-05T07:23:32.874Z,4.82
2023-04-05T07:26:05.319Z,4.30
2023-04-05T07:28:35.717Z,2.85
2023-04-05T07:31:05.950Z,1.92
2023-04-05T07:33:34.480Z,2.15
2023-04-05T07:36:03.635Z,2.42
2023-04-05T07:38:32.361Z,2.17
2023-04-05T07:41:00.823Z,3.88
2023-04-05T07:43:29.577Z,1.13
2023-04-05T07:46:04.708Z,2.15
2023-04-05T07:48:33.642Z,3.60
2023-04-05T07:51:10.349Z,2.33
2023-04-05T07:53:39.162Z,3.33
2023-04-05T07:56:09.142Z,2.85
2023-04-05T07:58:41.368Z,3.47
2023-04-05T08:01:11.580Z,3.85
2023-04-05T08:03:40.960Z,6.28
2023-04-05T08:06:13.872Z,3.95
2023-04-05T08:08:42.663Z,5.10
2023-04-05T08:11:11.158Z,3.92
2023-04-05T08:13:43.972Z,3.50
2023-04-05T08:16:12.714Z,4.32
2023-04-05T08:18:41.383Z,4.30
2023-04-05T08:21:09.772Z,3.90
2023-04-05T08:23:38.945Z,2.13
2023-04-05T08:26:07.978Z,1.95
2023-04-05T08:28:36.660Z,3.95
2023-04-05T08:31:05.296Z,3.38
2023-04-05T08:33:34.081Z,5.15
2023-04-05T08:36:10.002Z,2.63
2023-04-05T08:38:38.954Z,2.50
2023-04-05T08:41:12.564Z,2.97
2023-04-05T08:43:48.766Z,3.97
2023-04-05T08:46:19.237Z,3.33
2023-04-05T08:48:48.285Z,4.47
2023-04-05T08:51:24.867Z,1.73
2023-04-05T08:53:54.451Z,8.80
2023-04-05T08:56:28.093Z,11.07
2023-04-05T08:59:03.600Z,3.75
2023-04-05T09:01:33.668Z,4.20
2023-04-05T09:04:07.644Z,4.53
2023-04-05T09:06:36.790Z,9.95
2023-04-05T09:09:09.257Z,2.47
2023-04-05T09:14:07.526Z,3.60
2023-04-05T09:16:41.475Z,4.15
2023-04-05T09:19:11.322Z,3.95
2023-04-05T09:22:02.489Z,3.78
2023-04-05T09:24:37.097Z,3.03
2023-04-05T09:27:11.741Z,2.25
2023-04-05T09:29:44.003Z,3.10
2023-04-05T09:32:14.011Z,3.88
2023-04-05T09:34:43.923Z,3.72
2023-04-05T09:37:22.245Z,2.80
2023-04-05T09:39:52.274Z,4.18
2023-04-05T09:42:24.907Z,2.15
2023-04-05T09:45:01.466Z,5.82
2023-04-05T09:47:35.249Z,4.25
2023-04-05T09:50:16.265Z,3.08
2023-04-05T09:52:45.157Z,4.50
2023-04-05T09:55:14.542Z,2.60
2023-04-05T09:57:46.078Z,3.88
2023-04-05T10:00:19.642Z,3.50
2023-04-05T10:02:52.577Z,6.47
2023-04-05T10:05:25.601Z,4.18
2023-04-05T10:07:56.072Z,6.38
2023-04-05T10:10:25.613Z,4.20
2023-04-05T10:12:54.789Z,2.28
2023-04-05T10:15:26.419Z,4.30
2023-04-05T10:18:28.614Z,2.15
2023-04-05T10:20:58.776Z,3.97
2023-04-05T10:23:34.892Z,3.65
2023-04-05T10:26:28.572Z,3.05
2023-04-05T10:29:03.310Z,3.35
2023-04-05T10:31:45.399Z,4.05
2023-04-05T10:34:27.947Z,2.88
2023-04-05T10:37:02.416Z,5.60
2023-04-05T10:39:40.683Z,5.93
2023-04-05T10:42:26.541Z,3.00
2023-04-05T10:45:04.737Z,5.38
2023-04-05T10:47:42.865Z,6.30
2023-04-05T10:50:16.333Z,4.38
2023-04-05T10:52:46.067Z,2.75
2023-04-05T10:55:16.987Z,4.60
2023-04-05T10:57:47.747Z,5.53
2023-04-05T11:00:17.611Z,3.80
2023-04-05T11:02:48.662Z,2.75
2023-04-05T11:05:37.911Z,3.85
2023-04-05T11:08:08.371Z,3.85
2023-04-05T11:10:39.157Z,4.45
2023-04-05T11:13:08.975Z,4.73
2023-04-05T11:15:38.248Z,3.45
2023-04-05T11:18:21.975Z,3.10
2023-04-05T11:21:05.648Z,3.33
2023-04-05T11:24:00.997Z,5.03
2023-04-05T11:26:44.927Z,4.18
2023-04-05T11:29:16.549Z,4.53
2023-04-05T11:32:06.916Z,5.47
2023-04-05T11:34:41.837Z,7.22
2023-04-05T11:37:11.218Z,3.60
2023-04-05T11:39:40.054Z,5.00
2023-04-05T11:42:17.878Z,4.93
2023-04-05T11:44:49.423Z,3.95
2023-04-05T11:47:18.694Z,3.55
2023-04-05T11:49:51.002Z,5.60
2023-04-05T11:52:21.489Z,3.70
2023-04-05T11:54:50.401Z,4.95
2023-04-05T11:57:25.207Z,4.15
2023-04-05T11:59:54.780Z,5.40
2023-04-05T12:02:24.088Z,5.65
2023-04-05T12:04:57.672Z,6.15
2023-04-05T12:07:32.675Z,8.38
2023-04-05T12:10:21.288Z,5.00
2023-04-05T12:12:49.734Z,7.05
2023-04-05T12:15:19.177Z,4.05
2023-04-05T12:17:50.528Z,4.82
2023-04-05T12:20:24.905Z,5.25
2023-04-05T12:22:56.125Z,3.65
2023-04-05T12:25:25.218Z,3.20
2023-04-05T12:27:54.004Z,4.93
2023-04-05T12:30:24.212Z,5.40
2023-04-05T12:32:57.515Z,3.50
2023-04-05T12:35:36.322Z,3.30
2023-04-05T12:38:06.305Z,3.10
2023-04-05T12:40:36.820Z,3.50
2023-04-05T12:43:10.638Z,3.65
2023-04-05T12:45:40.869Z,4.00
2023-04-05T12:48:13.452Z,6.15
2023-04-05T12:50:47.263Z,4.72
2023-04-05T12:53:25.822Z,5.82
2023-04-05T12:55:58.495Z,3.78
2023-04-05T12:58:58.052Z,4.22
2023-04-05T13:01:32.371Z,4.13
2023-04-05T13:04:14.855Z,5.70
2023-04-05T13:06:47.824Z,3.72
2023-04-05T13:09:16.262Z,4.73
2023-04-05T13:11:46.074Z,6.88
2023-04-05T13:14:14.566Z,3.58
2023-04-05T13:16:43.398Z,3.42
2023-04-05T13:19:11.886Z,5.53
2023-04-05T13:21:41.618Z,3.42
2023-04-05T13:24:12.307Z,7.28
2023-04-05T13:29:10.030Z,4.72
2023-04-05T13:31:41.163Z,5.80
2023-04-05T13:34:09.834Z,4.25
2023-04-05T13:36:38.477Z,4.10
2023-04-05T13:39:09.546Z,3.45
2023-04-05T13:41:41.038Z,4.30
2023-04-05T13:44:09.300Z,6.22
2023-04-05T13:46:39.270Z,4.03
2023-04-05T13:49:10.634Z,5.20
2023-04-05T13:51:41.494Z,4.05
2023-04-05T13:54:11.860Z,6.15
2023-04-05T13:56:40.708Z,3.72
2023-04-05T13:59:09.327Z,4.50
2023-04-05T14:01:38.238Z,3.78
2023-04-05T14:04:06.580Z,4.75
2023-04-05T14:06:35.141Z,4.78
2023-04-05T14:09:05.867Z,7.38
2023-04-05T14:11:37.513Z,5.10
2023-04-05T14:14:06.392Z,6.13
2023-04-05T14:16:35.653Z,12.02
2023-04-05T14:19:05.110Z,5.47
2023-04-05T14:21:34.648Z,21.35
2023-04-05T14:24:02.987Z,6.18
2023-04-05T14:26:31.634Z,6.72
2023-04-05T14:28:59.915Z,6.13
2023-04-05T14:31:28.776Z,5.78
2023-04-05T14:33:57.158Z,5.82
2023-04-05T14:36:27.185Z,5.03
2023-04-05T14:38:55.889Z,9.65
2023-04-05T14:41:25.104Z,5.25
2023-04-05T14:43:54.184Z,6.25
2023-04-05T14:46:24.058Z,5.70
2023-04-05T14:48:52.550Z,7.03
2023-04-05T14:51:21.083Z,5.65
2023-04-05T14:53:49.628Z,4.72
2023-04-05T14:56:18.325Z,10.73
2023-04-05T14:58:46.807Z,3.95
2023-04-05T15:01:16.892Z,20.60
2023-04-05T15:03:45.463Z,22.23
2023-04-05T15:06:16.790Z,12.27
2023-04-05T15:08:45.174Z,9.32
2023-04-05T15:11:13.904Z,16.88
2023-04-05T15:13:42.723Z,6.53
2023-04-05T15:16:12.696Z,7.07
2023-04-05T15:18:41.325Z,5.25
2023-04-05T15:21:10.282Z,10.52
2023-04-05T15:23:38.658Z,10.73
2023-04-05T15:26:07.321Z,6.90
2023-04-05T15:28:36.339Z,5.10
2023-04-05T15:31:04.966Z,4.45
2023-04-05T15:33:33.332Z,6.93
2023-04-05T15:36:02.092Z,7.55
2023-04-05T15:38:30.503Z,7.88
2023-04-05T15:40:59.142Z,4.55
2023-04-05T15:43:27.493Z,4.45
2023-04-05T15:45:56.052Z,4.80
2023-04-05T15:48:24.537Z,5.38
2023-04-05T15:50:53.157Z,5.10
2023-04-05T15:53:21.553Z,6.22
2023-04-05T15:55:50.271Z,4.50
2023-04-05T15:58:19.138Z,5.60
2023-04-05T16:00:47.737Z,14.90
2023-04-05T16:03:16.386Z,19.00
2023-04-05T16:05:45.291Z,5.53
2023-04-05T16:08:13.654Z,5.25
2023-04-05T16:10:42.911Z,15.15
2023-04-05T16:13:11.605Z,7.28
2023-04-05T16:15:40.204Z,5.32
2023-04-05T16:18:10.678Z,4.72
2023-04-05T16:20:39.508Z,5.82
2023-04-05T16:23:08.698Z,6.35
2023-04-05T16:25:37.352Z,18.35
2023-04-05T16:28:06.918Z,16.15
2023-04-05T16:30:36.618Z,15.30
2023-04-05T16:33:05.589Z,8.63
2023-04-05T16:35:38.144Z,16.48
2023-04-05T16:40:35.175Z,17.90
2023-04-05T16:43:03.662Z,11.63
2023-04-05T16:45:33.983Z,14.20
2023-04-05T16:48:03.987Z,20.23
2023-04-05T16:50:33.272Z,15.63
2023-04-05T16:53:01.613Z,10.52
2023-04-05T16:55:30.509Z,10.18
2023-04-05T16:57:59.083Z,9.68
2023-04-05T17:00:30.564Z,8.48
2023-04-05T17:02:58.887Z,7.70
2023-04-05T17:05:27.684Z,10.85
2023-04-05T17:07:56.577Z,12.73
2023-04-05T17:10:25.158Z,9.27
2023-04-05T17:12:54.338Z,10.65
2023-04-05T17:15:23.414Z,11.60
2023-04-05T17:17:51.992Z,8.63
2023-04-05T17:20:20.544Z,41.35
2023-04-05T17:22:50.286Z,36.15
2023-04-05T17:25:19.014Z,60.03
2023-04-05T17:27:48.554Z,19.67
2023-04-05T17:30:17.212Z,16.73
2023-04-05T17:32:45.675Z,23.00
2023-04-05T17:35:14.732Z,24.88
2023-04-05T17:37:43.012Z,21.50
2023-04-05T17:40:12.385Z,24.42
2023-04-05T17:42:40.821Z,23.58
2023-04-05T17:45:09.847Z,25.05
2023-04-05T17:47:38.375Z,22.77
2023-04-05T17:50:07.479Z,21.80
2023-04-05T17:52:36.210Z,20.05
2023-04-05T17:55:05.927Z,21.95
2023-04-05T17:57:34.312Z,27.92
2023-04-05T18:00:03.104Z,25.88
2023-04-05T18:02:38.454Z,30.63
2023-04-05T18:05:11.554Z,32.22
2023-04-05T18:07:43.202Z,88.38
2023-04-05T18:10:15.041Z,92.07
2023-04-05T18:12:45.622Z,146.00
2023-04-05T18:15:20.501Z,111.18
2023-04-05T18:17:49.015Z,107.55
2023-04-05T18:20:24.403Z,129.25
2023-04-05T18:23:04.236Z,137.30
2023-04-05T18:25:43.408Z,122.57
2023-04-05T18:28:22.220Z,105.88
2023-04-05T18:30:56.544Z,76.88
2023-04-05T18:33:31.285Z,94.57
2023-04-05T18:36:00.299Z,52.92
2023-04-05T18:38:36.149Z,47.05
2023-04-05T18:41:10.612Z,42.78
2023-04-05T18:43:44.563Z,41.08
2023-04-05T18:46:19.067Z,42.60
2023-04-05T18:48:47.587Z,68.15
2023-04-05T18:51:16.984Z,66.63
2023-04-05T18:53:50.125Z,58.03
2023-04-05T18:56:20.229Z,77.43
2023-04-05T18:58:52.338Z,64.38
2023-04-05T19:01:24.697Z,56.72
2023-04-05T19:04:08.758Z,49.70
2023-04-05T19:06:57.563Z,41.08
2023-04-05T19:09:43.566Z,44.60
2023-04-05T19:12:19.610Z,61.28
2023-04-05T19:14:51.320Z,64.97
2023-04-05T19:17:33.934Z,79.53
2023-04-05T19:20:22.870Z,85.25
2023-04-05T19:22:54.483Z,75.32
2023-04-05T19:25:27.509Z,178.35
2023-04-05T19:28:00.866Z,171.55
2023-04-05T19:30:38.144Z,219.43
2023-04-05T19:34:15.765Z,250.93
2023-04-05T19:36:49.894Z,207.93
2023-04-05T19:39:25.746Z,109.70
2023-04-05T19:42:17.051Z,115.75
2023-04-05T19:45:00.220Z,144.50
2023-04-05T19:47:32.384Z,122.80
2023-04-05T19:50:35.796Z,100.45
2023-04-05T19:53:07.695Z,56.83
2023-04-05T19:55:40.757Z,81.53
2023-04-05T19:58:10.654Z,96.68
2023-04-05T20:00:53.831Z,73.32
2023-04-05T20:03:33.192Z,55.55
2023-04-05T20:06:07.190Z,28.60
2023-04-05T20:08:51.588Z,43.83
2023-04-05T20:11:22.219Z,45.83
2023-04-05T20:14:02.337Z,49.20
2023-04-05T20:16:36.724Z,62.30
2023-04-05T20:19:08.263Z,57.92
2023-04-05T20:24:34.188Z,45.53
2023-04-05T20:27:08.695Z,57.05
2023-04-05T20:29:38.910Z,54.42
2023-04-05T20:32:07.559Z,68.25
2023-04-05T20:34:43.936Z,96.20
2023-04-05T20:37:13.748Z,96.35
2023-04-05T20:39:46.878Z,96.50
2023-04-05T20:42:16.243Z,77.18
2023-04-05T20:44:48.281Z,52.42
2023-04-05T20:47:20.833Z,50.97
2023-04-05T20:49:53.506Z,41.53
2023-04-05T20:52:23.274Z,32.50
2023-04-05T20:54:52.459Z,35.15
2023-04-05T20:57:21.484Z,42.83
2023-04-05T20:59:51.524Z,47.10
2023-04-05T21:02:20.631Z,42.97
2023-04-05T21:04:50.640Z,49.58
2023-04-05T21:07:19.123Z,57.35
2023-04-05T21:09:48.208Z,54.40
2023-04-05T21:12:16.384Z,52.83
2023-04-05T21:14:44.909Z,46.03
2023-04-05T21:17:13.165Z,49.30
2023-04-05T21:19:42.164Z,44.53
2023-04-05T21:22:10.449Z,31.02
2023-04-05T21:24:39.249Z,33.85
2023-04-05T21:27:07.666Z,29.77
2023-04-05T21:29:36.391Z,29.38
2023-04-05T21:32:04.890Z,17.45
2023-04-05T21:34:33.532Z,17.58
2023-04-05T21:37:01.973Z,18.45
2023-04-05T21:39:30.943Z,24.58
2023-04-05T21:41:59.343Z,19.45
2023-04-05T21:44:27.937Z,20.67
2023-04-05T21:46:57.550Z,21.13
2023-04-05T21:49:26.576Z,18.30
2023-04-05T21:51:55.913Z,15.80
2023-04-05T21:54:24.545Z,14.75
2023-04-05T21:56:52.816Z,16.55
2023-04-05T21:59:21.799Z,18.55
2023-04-05T22:01:50.294Z,26.73
2023-04-05T22:04:19.067Z,16.80
2023-04-05T22:06:47.242Z,16.80
2023-04-05T22:09:16.170Z,15.63
2023-04-05T22:11:44.403Z,16.33
2023-04-05T22:14:13.384Z,30.65
2023-04-05T22:16:42.044Z,24.58
2023-04-05T22:19:14.807Z,56.20
2023-04-05T22:21:43.088Z,55.30
2023-04-05T22:24:12.510Z,53.20
2023-04-05T22:26:41.177Z,45.03
2023-04-05T22:29:10.084Z,44.95
2023-04-05T22:31:38.555Z,41.08
2023-04-05T22:34:07.934Z,34.45
2023-04-05T22:36:36.362Z,29.90
2023-04-05T22:39:04.950Z,26.33
2023-04-05T22:41:33.118Z,27.08
2023-04-05T22:44:01.885Z,27.15
2023-04-05T22:46:30.284Z,26.83
2023-04-05T22:48:59.166Z,28.75
2023-04-05T22:51:27.648Z,21.83
2023-04-05T22:53:56.872Z,23.85
2023-04-05T22:56:25.126Z,24.05
2023-04-05T22:58:56.398Z,25.83
2023-04-05T23:01:24.663Z,28.65
2023-04-05T23:03:53.317Z,29.90
2023-04-05T23:06:21.669Z,33.63
2023-04-05T23:08:50.592Z,30.40
2023-04-05T23:11:18.979Z,37.92
2023-04-05T23:13:47.944Z,34.75
2023-04-05T23:16:17.169Z,33.80
2023-04-05T23:18:46.633Z,30.65
2023-04-05T23:21:15.249Z,34.78
2023-04-05T23:23:44.109Z,31.52
2023-04-05T23:26:13.727Z,29.90
2023-04-05T23:28:42.211Z,32.72
2023-04-05T23:31:14.411Z,35.67
2023-04-05T23:33:43.203Z,36.80
2023-04-05T23:36:11.648Z,33.90
2023-04-05T23:38:40.562Z,29.67
2023-04-05T23:41:08.937Z,35.13
2023-04-05T23:43:37.518Z,32.15
2023-04-05T23:46:06.880Z,34.53
2023-04-05T23:48:35.909Z,33.65
2023-04-05T23:51:04.571Z,42.17
2023-04-05T23:53:33.149Z,48.85
2023-04-05T23:56:01.672Z,56.15
2023-04-05T23:58:30.471Z,48.72
